Time;durP1;ratioP1;P1;durP2;ratioP2;P2;SDS_P1;SDS_P2;PMS_P1;PMS_P2;Temp;Humidity;BMP_temperature;BMP_pressure;BME280_temperature;BME280_humidity;BME280_pressure;Samples;Min_cycle;Max_cycle;Signal;HPM_P1;HPM_P2
2022/05/11 00:00:50;;;;;;;10.85;6.35;;;;;;;14.15;89.05;100474.91;5074012;28;20055;-77
2022/05/11 00:03:20;;;;;;;11.18;6.25;;;;;;;14.11;89.97;100465.38;5074995;28;20037;-77
2022/05/11 00:05:49;;;;;;;9.35;5.85;;;;;;;14.10;89.69;100476.22;5075205;28;20139;-76
2022/05/11 00:08:17;;;;;;;10.90;6.32;;;;;;;13.99;91.06;100469.78;5074416;28;20500;-77
2022/05/11 00:10:46;;;;;;;14.65;7.13;;;;;;;14.01;90.63;100475.03;5075255;28;20041;-76
2022/05/11 00:13:15;;;;;;;13.30;6.90;;;;;;;13.97;90.54;100470.84;5065959;28;20059;-76
2022/05/11 00:15:45;;;;;;;12.77;6.38;;;;;;;13.93;91.50;100474.72;5054652;28;20041;-77
2022/05/11 00:18:14;;;;;;;13.05;6.68;;;;;;;13.83;93.33;100463.78;5054364;28;20057;-77
2022/05/11 00:20:43;;;;;;;14.00;6.70;;;;;;;13.82;94.48;100474.63;5054533;28;20072;-77
2022/05/11 00:23:11;;;;;;;12.38;6.63;;;;;;;13.78;94.82;100465.91;5054247;28;20068;-77
2022/05/11 00:25:40;;;;;;;10.93;6.32;;;;;;;13.89;94.78;100467.84;5053380;28;20048;-77
2022/05/11 00:28:09;;;;;;;10.55;6.25;;;;;;;13.84;94.58;100465.50;5054283;28;20037;-77
2022/05/11 00:30:37;;;;;;;12.05;6.75;;;;;;;13.85;94.58;100474.41;5053324;28;20049;-77
2022/05/11 00:33:06;;;;;;;12.48;6.82;;;;;;;13.86;93.43;100470.75;5054255;28;20132;-77
2022/05/11 00:35:36;;;;;;;13.30;6.75;;;;;;;13.87;92.38;100467.09;5054744;28;20410;-75
2022/05/11 00:38:05;;;;;;;11.82;6.78;;;;;;;13.84;92.54;100470.00;5054257;28;20041;-76
2022/05/11 00:40:39;;;;;;;10.10;6.18;;;;;;;13.77;94.87;100468.72;5054410;28;20052;-74
2022/05/11 00:43:07;;;;;;;10.52;6.28;;;;;;;13.70;96.28;100469.16;5054035;28;20453;-75
2022/05/11 00:45:37;;;;;;;12.80;6.35;;;;;;;13.63;98.06;100465.19;5054205;28;20041;-74
2022/05/11 00:50:56;;;;;;;12.43;6.18;;;;;;;13.60;99.42;100462.69;5052841;28;20513;-74
2022/05/11 00:53:25;;;;;;;11.25;6.07;;;;;;;13.55;99.91;100464.84;5052612;28;20409;-74
2022/05/11 00:55:56;;;;;;;11.77;7.03;;;;;;;13.63;96.59;100462.50;5053853;28;20041;-76
2022/05/11 00:58:28;;;;;;;11.70;6.68;;;;;;;13.52;97.85;100465.06;5053740;28;20037;-76
2022/05/11 01:00:57;;;;;;;15.63;7.32;;;;;;;13.48;97.54;100462.69;5054055;28;20063;-76
2022/05/11 01:03:31;;;;;;;13.65;7.45;;;;;;;13.43;98.48;100469.22;5053603;28;20478;-76
2022/05/11 01:06:01;;;;;;;15.45;7.10;;;;;;;13.40;100.00;100473.91;5053970;28;20154;-75
2022/05/11 01:08:31;;;;;;;11.48;6.75;;;;;;;13.37;100.00;100466.09;5053965;28;20048;-75
2022/05/11 01:11:02;;;;;;;11.85;6.72;;;;;;;13.35;100.00;100462.69;5053092;28;20072;-75
2022/05/11 01:13:34;;;;;;;12.25;6.32;;;;;;;13.37;100.00;100471.47;5053908;28;20041;-75
2022/05/11 01:16:02;;;;;;;9.63;6.15;;;;;;;13.32;100.00;100465.56;5052585;28;20079;-74
2022/05/11 01:18:32;;;;;;;13.98;6.45;;;;;;;13.65;97.94;100468.59;5052436;28;20102;-74
2022/05/11 01:21:04;;;;;;;11.05;6.32;;;;;;;13.52;98.43;100465.06;5069067;28;20049;-74
2022/05/11 01:23:40;;;;;;;10.20;6.10;;;;;;;13.43;100.00;100471.06;5053310;28;20116;-74
2022/05/11 01:26:10;;;;;;;12.70;6.25;;;;;;;13.28;100.00;100466.72;5052992;28;20084;-75
2022/05/11 01:28:43;;;;;;;14.25;6.38;;;;;;;13.28;100.00;100472.09;5051844;28;20498;-74
2022/05/11 01:31:17;;;;;;;8.80;6.20;;;;;;;13.25;100.00;100472.31;5068649;28;20055;-74
2022/05/11 01:33:48;;;;;;;9.23;6.68;;;;;;;13.16;100.00;100473.75;5053290;28;20044;-73
2022/05/11 01:36:24;;;;;;;12.68;6.47;;;;;;;13.06;100.00;100462.78;5053059;28;20441;-73
2022/05/11 01:38:55;;;;;;;12.30;7.05;;;;;;;13.03;100.00;100467.50;5052271;28;20057;-73
2022/05/11 01:41:31;;;;;;;12.13;6.88;;;;;;;13.04;100.00;100475.44;5053201;28;20041;-73
2022/05/11 01:43:59;;;;;;;13.88;7.13;;;;;;;13.02;100.00;100469.31;5053075;28;20123;-73
2022/05/11 01:46:28;;;;;;;9.82;6.50;;;;;;;12.93;100.00;100475.25;5051374;28;20040;-76
2022/05/11 01:48:56;;;;;;;13.45;6.97;;;;;;;12.87;100.00;100471.19;5051598;28;20139;-76
2022/05/11 01:51:24;;;;;;;12.00;7.05;;;;;;;12.87;100.00;100473.88;5052559;28;20494;-76
2022/05/11 01:53:53;;;;;;;12.80;7.25;;;;;;;12.84;100.00;100473.22;5068733;28;20052;-76
2022/05/11 01:56:23;;;;;;;10.23;6.45;;;;;;;12.79;100.00;100464.63;5068371;28;20049;-76
2022/05/11 01:58:54;;;;;;;12.85;7.13;;;;;;;12.76;100.00;100470.19;5053238;28;20049;-76
2022/05/11 02:01:24;;;;;;;12.35;7.35;;;;;;;12.74;100.00;100464.06;5052535;28;20049;-76
2022/05/11 02:03:53;;;;;;;11.45;6.38;;;;;;;12.76;100.00;100471.06;5053316;28;20048;-73
2022/05/11 02:09:08;;;;;;;10.90;6.90;;;;;;;12.83;100.00;100471.47;5053027;28;20045;-73
2022/05/11 02:11:36;;;;;;;13.10;6.70;;;;;;;12.79;100.00;100468.16;5053087;28;20120;-73
2022/05/11 02:14:06;;;;;;;14.52;6.85;;;;;;;12.73;100.00;100467.69;5052937;28;20390;-73
2022/05/11 02:16:35;;;;;;;10.85;6.78;;;;;;;12.71;100.00;100469.63;5052650;28;20052;-73
2022/05/11 02:19:03;;;;;;;11.93;6.72;;;;;;;12.74;100.00;100472.97;5067932;28;20128;-77
2022/05/11 02:21:31;;;;;;;10.85;7.18;;;;;;;12.75;100.00;100468.47;5053388;28;20039;-78
2022/05/11 02:24:00;;;;;;;12.50;7.38;;;;;;;12.75;100.00;100471.16;5057165;28;20049;-76
2022/05/11 02:26:28;;;;;;;13.98;7.05;;;;;;;12.73;100.00;100476.59;5056352;28;20813;-78
2022/05/11 02:28:56;;;;;;;12.15;7.30;;;;;;;12.68;100.00;100467.16;5056693;28;20051;-74
2022/05/11 02:31:26;;;;;;;12.07;7.32;;;;;;;12.58;100.00;100466.91;5055054;28;20041;-74
2022/05/11 02:33:54;;;;;;;11.05;6.70;;;;;;;12.51;100.00;100461.06;5055588;28;20049;-74
2022/05/11 02:36:23;;;;;;;11.73;7.15;;;;;;;12.48;100.00;100455.94;5055094;28;20072;-75
2022/05/11 02:38:52;;;;;;;13.35;8.27;;;;;;;12.45;100.00;100463.28;5056356;28;20505;-74
2022/05/11 02:41:23;;;;;;;12.68;7.88;;;;;;;12.45;100.00;100465.94;5056204;28;20132;-74
2022/05/11 02:43:51;;;;;;;13.23;7.13;;;;;;;12.57;100.00;100467.84;5056606;28;20045;-74
2022/05/11 02:46:20;;;;;;;16.95;7.78;;;;;;;12.51;100.00;100463.75;5055891;28;20041;-74
2022/05/11 02:48:50;;;;;;;15.95;7.00;;;;;;;12.47;100.00;100461.38;5071679;28;20131;-74
2022/05/11 02:51:18;;;;;;;11.82;7.43;;;;;;;12.48;100.00;100463.09;5055008;28;20049;-73
2022/05/11 02:53:47;;;;;;;12.25;7.25;;;;;;;12.39;100.00;100471.72;5056572;28;20098;-77
2022/05/11 02:56:15;;;;;;;14.07;7.38;;;;;;;12.32;100.00;100461.41;5056499;28;20048;-77
2022/05/11 02:58:43;;;;;;;11.73;7.90;;;;;;;12.30;100.00;100467.81;5056486;28;20037;-76
2022/05/11 03:01:11;;;;;;;12.18;7.47;;;;;;;12.26;100.00;100466.31;5054870;28;20064;-81
2022/05/11 03:03:40;;;;;;;12.07;7.25;;;;;;;12.24;100.00;100462.84;5056450;28;20063;-78
2022/05/11 03:06:09;;;;;;;12.60;7.45;;;;;;;12.19;100.00;100459.63;5055813;28;20073;-77
2022/05/11 03:08:38;;;;;;;13.25;7.65;;;;;;;12.16;100.00;100459.78;5055976;28;20049;-78
2022/05/11 03:11:08;;;;;;;14.30;7.65;;;;;;;12.16;100.00;100468.69;5056010;28;20048;-78
2022/05/11 03:13:36;;;;;;;15.50;8.32;;;;;;;12.14;100.00;100461.72;5054575;28;20474;-79
2022/05/11 03:16:05;;;;;;;14.68;8.48;;;;;;;12.16;100.00;100467.81;5056061;28;20045;-78
2022/05/11 03:18:35;;;;;;;13.05;7.45;;;;;;;12.20;100.00;100467.53;5055569;28;20387;-78
2022/05/11 03:21:04;;;;;;;12.30;7.57;;;;;;;12.14;100.00;100467.91;5056038;28;20053;-76
2022/05/11 03:23:35;;;;;;;12.70;7.93;;;;;;;12.11;100.00;100465.44;5071361;28;20450;-78
2022/05/11 03:26:03;;;;;;;12.85;7.55;;;;;;;12.20;100.00;100467.53;5055879;28;20110;-78
2022/05/11 03:28:33;;;;;;;13.88;7.55;;;;;;;12.29;100.00;100474.13;5055624;28;20429;-78
2022/05/11 03:31:02;;;;;;;11.95;7.28;;;;;;;12.46;100.00;100467.69;5056176;28;20033;-79
2022/05/11 03:36:16;;;;;;;11.60;6.47;;;;;;;12.73;96.43;100476.59;5055797;28;20049;-76
2022/05/11 03:38:45;;;;;;;12.13;7.03;;;;;;;12.74;97.92;100483.69;5054370;28;20053;-78
2022/05/11 03:41:14;;;;;;;14.98;8.27;;;;;;;12.75;99.94;100484.53;5053749;28;20139;-83
2022/05/11 03:43:42;;;;;;;14.00;7.65;;;;;;;12.66;100.00;100479.78;5055367;28;20048;-77
2022/05/11 03:46:15;;;;;;;16.35;7.68;;;;;;;12.67;100.00;100486.84;5055201;28;20049;-79
2022/05/11 03:48:43;;;;;;;12.85;7.10;;;;;;;12.71;100.00;100488.34;5053711;28;20056;-78
2022/05/11 03:51:12;;;;;;;13.77;7.43;;;;;;;12.75;99.17;100485.41;5054133;28;20398;-78
2022/05/11 03:53:42;;;;;;;11.95;7.20;;;;;;;12.82;99.09;100489.38;5054487;28;20127;-77
2022/05/11 03:56:11;;;;;;;12.23;7.57;;;;;;;13.00;98.04;100487.28;5055085;28;20487;-78
2022/05/11 03:58:40;;;;;;;15.02;7.15;;;;;;;13.32;93.81;100495.06;5055344;28;20087;-77
2022/05/11 04:01:08;;;;;;;11.77;7.10;;;;;;;13.64;92.20;100485.66;5055238;28;20087;-77
2022/05/11 04:03:36;;;;;;;14.52;7.32;;;;;;;13.88;87.51;100498.31;5054590;28;20478;-77
2022/05/11 04:06:04;;;;;;;14.70;7.63;;;;;;;14.06;85.53;100491.66;5055066;28;20041;-77
2022/05/11 04:08:33;;;;;;;13.13;6.75;;;;;;;14.46;81.35;100494.19;5054445;28;20095;-76
2022/05/11 04:11:01;;;;;;;13.68;6.80;;;;;;;14.92;77.89;100490.81;5054853;28;20041;-77
2022/05/11 04:13:31;;;;;;;18.25;6.70;;;;;;;15.59;73.95;100491.06;5054587;28;20476;-77
2022/05/11 04:16:00;;;;;;;9.57;6.72;;;;;;;15.84;70.44;100488.25;5055116;28;20049;-76
2022/05/11 04:18:28;;;;;;;13.63;6.72;;;;;;;16.39;68.00;100486.53;5054260;28;20045;-77
2022/05/11 04:20:56;;;;;;;10.82;6.90;;;;;;;17.04;65.28;100490.22;5053502;28;20502;-76
2022/05/11 04:23:24;;;;;;;11.00;6.55;;;;;;;17.64;62.18;100500.34;5053481;28;20591;-76
2022/05/11 04:25:52;;;;;;;10.13;6.57;;;;;;;17.69;61.84;100500.84;5053715;28;20094;-75
2022/05/11 04:28:20;;;;;;;13.90;6.68;;;;;;;17.61;61.82;100510.56;5054260;28;20102;-78
2022/05/11 04:30:59;;;;;;;11.07;6.63;;;;;;;18.17;59.98;100505.69;5054883;28;20389;-77
2022/05/11 04:33:28;;;;;;;11.73;7.50;;;;;;;18.26;59.44;100504.00;5053085;28;20567;-77
2022/05/11 04:35:56;;;;;;;12.35;6.50;;;;;;;18.81;57.42;100497.22;5053350;28;20115;-76
2022/05/11 04:38:25;;;;;;;9.45;6.63;;;;;;;18.84;56.96;100499.69;5053861;28;20045;-75
2022/05/11 04:40:53;;;;;;;13.40;6.72;;;;;;;19.23;55.09;100493.47;5054469;28;20041;-74
2022/05/11 04:43:21;;;;;;;12.13;6.57;;;;;;;19.78;53.49;100494.56;5052797;28;20131;-74
2022/05/11 04:45:49;;;;;;;10.95;6.30;;;;;;;20.22;51.68;100497.59;5052867;28;20575;-74
2022/05/11 04:48:21;;;;;;;10.73;6.70;;;;;;;20.32;50.39;100497.56;5054147;28;20052;-72
2022/05/11 04:50:49;;;;;;;10.10;6.60;;;;;;;20.33;51.03;100499.25;5069593;28;20044;-72
2022/05/11 04:53:18;;;;;;;12.40;7.43;;;;;;;20.26;50.95;100497.13;5069533;28;20545;-75
2022/05/11 04:55:48;;;;;;;13.43;7.20;;;;;;;20.29;51.04;100498.72;5053876;28;20041;-74
2022/05/11 04:58:16;;;;;;;12.13;7.15;;;;;;;20.41;50.88;100502.94;5069542;28;20406;-76
2022/05/11 05:00:44;;;;;;;10.68;7.07;;;;;;;20.20;51.63;100500.44;5053933;28;20075;-79
2022/05/11 05:03:14;;;;;;;14.55;7.50;;;;;;;20.32;51.25;100500.25;5052706;28;20048;-80
2022/05/11 05:05:45;;;;;;;11.82;7.05;;;;;;;20.80;50.29;100505.47;5053592;28;20397;-75
2022/05/11 05:08:13;;;;;;;19.02;7.97;;;;;;;21.25;48.55;100501.88;5053594;28;20045;-77
2022/05/11 05:10:42;;;;;;;13.88;7.75;;;;;;;21.57;47.45;100507.63;5054105;28;20045;-79
2022/05/11 05:13:12;;;;;;;16.38;7.72;;;;;;;21.91;46.73;100515.03;5055092;28;20049;-78
2022/05/11 05:15:43;;;;;;;14.70;7.97;;;;;;;22.36;45.14;100508.53;5064747;28;20076;-78
2022/05/11 05:18:11;;;;;;;17.60;7.85;;;;;;;22.53;44.68;100513.03;5072325;28;20049;-77
2022/05/11 05:20:40;;;;;;;13.18;8.13;;;;;;;23.02;43.28;100510.50;5072101;28;20048;-76
2022/05/11 05:23:09;;;;;;;14.30;8.73;;;;;;;23.26;42.93;100510.56;5073667;28;20068;-75
2022/05/11 05:25:38;;;;;;;18.55;8.25;;;;;;;23.51;42.80;100511.41;5071960;28;20106;-76
2022/05/11 05:31:08;;;;;;;12.85;8.50;;;;;;;23.56;41.87;100498.16;5073498;28;20040;-78
2022/05/11 05:33:39;;;;;;;16.52;9.07;;;;;;;23.70;41.62;100504.81;5073131;28;20505;-78
2022/05/11 05:36:07;;;;;;;13.20;8.18;;;;;;;23.93;41.62;100505.81;5072501;28;20053;-79
2022/05/11 05:38:38;;;;;;;15.05;8.63;;;;;;;24.45;41.32;100509.97;5071753;28;20102;-78
2022/05/11 05:41:07;;;;;;;15.32;8.20;;;;;;;24.13;40.70;100500.84;5071790;28;20502;-79
2022/05/11 05:43:36;;;;;;;13.75;7.85;;;;;;;24.38;39.70;100504.38;5072913;28;20474;-73
2022/05/11 05:46:04;;;;;;;12.27;8.57;;;;;;;23.91;40.94;100510.56;5071931;28;20044;-75
2022/05/11 05:48:33;;;;;;;12.70;8.23;;;;;;;23.84;40.86;100501.41;5067919;28;20505;-73
2022/05/11 05:51:06;;;;;;;13.15;7.97;;;;;;;22.93;42.36;100500.63;5072861;28;20135;-74
2022/05/11 05:53:35;;;;;;;11.85;7.85;;;;;;;23.36;41.96;100494.94;5071399;28;20481;-74
2022/05/11 05:56:05;;;;;;;12.40;7.75;;;;;;;24.14;40.58;100497.09;5071197;28;20154;-74
2022/05/11 05:58:33;;;;;;;13.45;7.75;;;;;;;24.74;39.06;100498.44;5072826;28;20094;-74
2022/05/11 06:01:02;;;;;;;11.55;7.60;;;;;;;24.79;38.49;100496.00;5071751;28;20102;-74
2022/05/11 06:03:33;;;;;;;12.90;7.82;;;;;;;25.24;37.99;100495.25;5071293;28;20545;-74
2022/05/11 06:06:07;;;;;;;13.93;7.97;;;;;;;25.50;37.26;100500.38;5071416;28;20056;-79
2022/05/11 06:08:36;;;;;;;15.25;8.30;;;;;;;25.60;37.36;100506.44;5071678;28;20057;-73
2022/05/11 06:11:08;;;;;;;13.90;7.63;;;;;;;26.04;36.18;100508.44;5072840;28;20040;-75
2022/05/11 06:13:38;;;;;;;14.20;7.97;;;;;;;26.25;35.89;100511.28;5071437;28;20051;-78
2022/05/11 06:16:10;;;;;;;18.08;8.43;;;;;;;26.30;35.48;100507.13;5072847;28;20033;-77
2022/05/11 06:18:41;;;;;;;;;;;;;;;26.35;35.56;100510.16;5073242;28;20068;-77
2022/05/11 06:21:10;;;;;;;15.27;7.63;;;;;;;26.59;35.37;100512.63;5071823;28;19978;-78
2022/05/11 06:23:38;;;;;;;15.65;7.53;;;;;;;26.78;35.11;100506.56;5071071;28;20055;-77
2022/05/11 06:26:09;;;;;;;20.50;8.40;;;;;;;26.28;35.41;100503.75;5072523;28;20045;-80
2022/05/11 06:28:40;;;;;;;14.10;7.85;;;;;;;26.50;35.20;100508.28;5072394;28;20044;-76
2022/05/11 06:31:18;;;;;;;11.95;7.57;;;;;;;26.75;34.42;100501.50;5072659;28;20049;-77
2022/05/11 06:33:49;;;;;;;14.32;8.10;;;;;;;27.01;34.85;100502.81;5071216;28;20067;-75
2022/05/11 06:36:18;;;;;;;14.30;8.00;;;;;;;27.45;34.38;100501.88;5071622;28;20050;-74
2022/05/11 06:38:47;;;;;;;13.55;8.25;;;;;;;27.51;33.10;100501.09;5071083;28;20045;-75
2022/05/11 06:41:19;;;;;;;14.18;8.00;;;;;;;27.56;33.34;100493.97;5073813;28;20055;-75
2022/05/11 06:43:49;;;;;;;11.43;7.90;;;;;;;28.06;33.20;100499.44;5068954;28;20490;-73
2022/05/11 06:46:17;;;;;;;16.00;8.43;;;;;;;27.80;32.97;100500.97;5060064;28;20041;-74
2022/05/11 06:48:46;;;;;;;15.50;7.20;;;;;;;28.08;32.56;100491.84;5050630;28;20092;-74
2022/05/11 06:51:16;;;;;;;12.48;7.40;;;;;;;27.67;33.75;100500.81;5052426;28;20110;-73
2022/05/11 06:59:20;;;;;;;14.40;7.50;;;;;;;25.91;35.91;100509.06;5067985;28;20045;-78
2022/05/11 07:01:49;;;;;;;16.65;7.57;;;;;;;25.46;36.94;100500.91;5067461;28;20799;-83
2022/05/11 07:04:22;;;;;;;14.18;7.70;;;;;;;25.04;38.17;100500.34;5067740;28;20049;-80
2022/05/11 07:06:51;;;;;;;16.35;8.02;;;;;;;25.05;38.63;100496.59;5051115;28;20049;-77
2022/05/11 07:09:21;;;;;;;15.18;8.10;;;;;;;25.01;38.25;100494.38;5052964;28;20090;-76
2022/05/11 07:14:38;;;;;;;12.07;8.13;;;;;;;24.82;39.32;100495.69;5073814;28;20048;-75
2022/05/11 07:17:07;;;;;;;12.73;8.15;;;;;;;24.64;39.36;100493.19;5074822;28;20064;-75
2022/05/11 07:19:40;;;;;;;13.38;7.55;;;;;;;24.49;40.15;100494.97;5073847;28;20440;-75
2022/05/11 07:22:08;;;;;;;14.02;7.28;;;;;;;24.73;40.57;100491.28;5075396;28;20044;-74
2022/05/11 07:24:37;;;;;;;13.25;7.32;;;;;;;24.58;40.20;100491.16;5074934;28;20068;-74
2022/05/11 07:27:07;;;;;;;13.85;7.57;;;;;;;24.50;39.82;100486.59;5073810;28;20510;-74
2022/05/11 07:29:35;;;;;;;15.45;7.50;;;;;;;24.38;40.15;100492.63;5074094;28;20144;-74
2022/05/11 07:32:06;;;;;;;14.80;7.90;;;;;;;24.28;40.81;100490.06;5074244;28;20143;-74
2022/05/11 07:34:36;;;;;;;12.98;7.70;;;;;;;24.35;41.17;100492.97;5074130;28;20412;-74
2022/05/11 07:37:05;;;;;;;12.45;7.60;;;;;;;24.41;41.11;100490.38;5074394;28;20060;-74
2022/05/11 07:39:35;;;;;;;13.48;7.18;;;;;;;24.58;40.98;100485.72;5073936;28;20053;-75
2022/05/11 07:42:06;;;;;;;14.68;6.57;;;;;;;24.43;40.57;100490.22;5074264;28;20528;-74
2022/05/11 07:44:34;;;;;;;13.40;6.10;;;;;;;24.53;40.28;100491.72;5075060;28;20048;-75
2022/05/11 07:47:03;;;;;;;11.05;6.13;;;;;;;24.53;40.72;100482.69;5073944;28;20507;-75
2022/05/11 07:49:32;;;;;;;13.43;5.00;;;;;;;24.31;39.72;100487.00;5075578;28;20060;-74
2022/05/11 07:52:02;;;;;;;11.57;4.68;;;;;;;24.25;38.25;100483.09;5075163;28;20048;-74
2022/05/11 07:54:31;;;;;;;9.15;4.70;;;;;;;24.15;38.73;100492.50;5074170;28;20087;-74
2022/05/11 07:59:59;;;;;;;11.68;4.07;;;;;;;24.32;38.67;100493.31;5073868;28;20048;-74
2022/05/11 08:02:29;;;;;;;8.32;4.28;;;;;;;24.44;38.04;100484.59;5074247;28;20079;-74
2022/05/11 08:04:59;;;;;;;6.60;3.53;;;;;;;24.49;37.64;100487.63;5075066;28;20044;-74
2022/05/11 08:07:29;;;;;;;7.57;3.83;;;;;;;24.41;37.01;100482.19;5075481;28;20076;-74
2022/05/11 08:09:58;;;;;;;7.82;3.80;;;;;;;24.42;37.13;100481.19;5074346;28;20072;-74
2022/05/11 08:12:27;;;;;;;10.32;3.72;;;;;;;24.53;36.61;100478.09;5074846;28;20048;-74
2022/05/11 08:14:57;;;;;;;8.23;3.88;;;;;;;24.43;36.27;100479.31;5074791;28;20055;-74
2022/05/11 08:17:28;;;;;;;7.07;3.35;;;;;;;24.46;36.43;100479.81;5073306;28;20489;-74
2022/05/11 08:19:57;;;;;;;8.63;3.95;;;;;;;24.34;36.67;100481.22;5073015;28;20041;-74
2022/05/11 08:22:25;;;;;;;8.88;3.72;;;;;;;24.35;36.90;100479.34;5073372;28;20052;-74
2022/05/11 08:24:56;;;;;;;7.95;3.90;;;;;;;24.39;37.08;100476.09;5074289;28;20523;-74
2022/05/11 08:27:28;;;;;;;8.90;3.60;;;;;;;24.51;37.19;100480.16;5073679;28;20455;-74
2022/05/11 08:35:58;;;;;;;12.52;4.20;;;;;;;24.65;37.30;100475.81;5073031;28;20417;-75
2022/05/11 08:38:29;;;;;;;7.15;3.92;;;;;;;24.63;36.54;100475.13;5073257;28;20052;-75
2022/05/11 08:41:00;;;;;;;7.78;4.28;;;;;;;24.60;36.62;100475.47;5072648;28;20044;-75
2022/05/11 08:43:31;;;;;;;10.30;4.13;;;;;;;24.46;38.09;100466.19;5072832;28;20048;-75
2022/05/11 08:46:30;;;;;;;7.05;4.07;;;;;;;24.71;37.57;100466.06;5073877;28;20041;-75
2022/05/11 08:49:01;;;;;;;8.98;4.32;;;;;;;24.42;37.72;100473.03;5073918;28;20490;-75
2022/05/11 08:51:33;;;;;;;13.73;3.95;;;;;;;24.52;37.13;100467.34;5072615;28;20068;-75
2022/05/11 08:54:12;;;;;;;6.20;4.03;;;;;;;24.67;36.14;100465.56;5073398;28;20075;-75
2022/05/11 08:56:43;;;;;;;8.85;3.92;;;;;;;24.78;35.53;100464.31;5073344;28;20075;-75
2022/05/11 08:59:24;;;;;;;9.00;3.57;;;;;;;24.91;35.76;100461.00;5073618;28;20602;-75
2022/05/11 09:01:56;;;;;;;7.75;4.00;;;;;;;24.92;35.00;100469.00;5073456;28;20044;-75
2022/05/11 09:04:34;;;;;;;9.95;4.28;;;;;;;24.85;36.81;100457.13;5072178;28;20060;-76
2022/05/11 09:07:03;;;;;;;8.68;4.10;;;;;;;24.95;36.46;100463.19;5074188;28;20063;-75
2022/05/11 09:09:31;;;;;;;9.00;3.83;;;;;;;25.04;36.20;100462.13;5072381;28;20490;-75
2022/05/11 09:12:00;;;;;;;9.07;4.05;;;;;;;25.11;35.95;100465.84;5072155;28;20048;-75
2022/05/11 09:14:34;;;;;;;8.63;3.63;;;;;;;25.00;36.65;100465.41;5072350;28;20060;-74
2022/05/11 09:17:06;;;;;;;7.57;3.75;;;;;;;25.04;35.44;100462.13;5073421;28;20059;-75
2022/05/11 09:19:35;;;;;;;6.82;3.90;;;;;;;24.74;36.10;100460.25;5072482;28;20109;-74
2022/05/11 09:22:10;;;;;;;7.90;3.65;;;;;;;24.90;35.75;100460.16;5073405;28;20367;-74
2022/05/11 09:24:46;;;;;;;7.05;3.90;;;;;;;25.01;36.12;100446.09;5072596;28;20158;-75
2022/05/11 09:27:24;;;;;;;6.88;3.47;;;;;;;25.20;36.04;100455.72;5073664;28;20048;-74
2022/05/11 09:29:59;;;;;;;6.57;3.50;;;;;;;25.29;35.01;100459.25;5073337;28;20474;-75
2022/05/11 09:32:35;;;;;;;6.70;3.47;;;;;;;25.38;34.79;100463.56;5072503;28;20048;-75
2022/05/11 09:35:24;;;;;;;6.95;3.70;;;;;;;25.11;34.50;100462.28;5071928;28;20161;-75
2022/05/11 09:38:01;;;;;;;8.30;3.88;;;;;;;25.27;34.59;100466.75;5073307;28;20481;-75
2022/05/11 09:40:31;;;;;;;7.70;3.63;;;;;;;25.16;34.70;100458.97;5073471;28;20064;-75
2022/05/11 09:43:02;;;;;;;7.60;3.40;;;;;;;25.32;34.49;100448.78;5073069;28;20090;-75
2022/05/11 09:45:47;;;;;;;10.40;3.67;;;;;;;25.38;34.83;100460.84;5073048;28;20440;-75
2022/05/11 09:48:23;;;;;;;7.35;3.70;;;;;;;25.42;34.26;100464.94;5073337;28;20063;-75
2022/05/11 09:50:55;;;;;;;7.72;3.90;;;;;;;25.43;32.63;100461.16;5071539;28;20094;-75
2022/05/11 09:53:35;;;;;;;8.18;3.72;;;;;;;25.05;33.17;100452.91;5073187;28;20162;-75
2022/05/11 09:56:20;;;;;;;7.38;3.60;;;;;;;25.02;33.63;100456.03;5072750;28;20119;-75
2022/05/11 09:58:49;;;;;;;7.13;3.42;;;;;;;25.13;33.82;100456.63;5071611;28;20110;-75
2022/05/11 10:01:25;;;;;;;7.70;3.50;;;;;;;25.43;33.30;100455.69;5072950;28;20098;-75
2022/05/11 10:03:58;;;;;;;6.00;3.72;;;;;;;25.47;31.69;100456.16;5071520;28;20504;-74
2022/05/11 10:06:50;;;;;;;6.80;3.42;;;;;;;25.65;33.45;100451.22;5072901;28;20516;-75
2022/05/11 10:09:23;;;;;;;7.78;3.33;;;;;;;25.65;32.64;100443.88;5072835;28;20539;-75
2022/05/11 10:11:51;;;;;;;5.47;2.90;;;;;;;25.75;32.83;100451.84;5072418;28;20044;-75
2022/05/11 10:23:00;;;;;;;7.38;3.53;;;;;;;26.06;32.16;100446.25;5071060;28;20056;-76
2022/05/11 10:25:35;;;;;;;6.82;3.30;;;;;;;26.27;31.58;100442.75;5072526;28;20040;-76
2022/05/11 10:28:14;;;;;;;7.18;3.63;;;;;;;26.41;31.63;100441.06;5070866;28;20048;-76
2022/05/11 10:30:54;;;;;;;7.82;3.25;;;;;;;26.38;31.78;100439.56;5071309;28;20049;-74
2022/05/11 10:33:44;;;;;;;8.70;3.30;;;;;;;26.52;32.01;100438.69;5072237;28;20543;-75
2022/05/11 10:36:25;;;;;;;9.18;3.38;;;;;;;26.76;31.62;100439.41;5067940;28;20053;-74
2022/05/11 10:39:06;;;;;;;6.95;2.85;;;;;;;26.84;31.62;100433.81;5071125;28;20048;-74
2022/05/11 10:41:42;;;;;;;6.95;3.05;;;;;;;26.91;32.08;100426.50;5070865;28;20049;-76
2022/05/11 10:44:28;;;;;;;6.50;3.03;;;;;;;27.04;30.89;100428.59;5075788;28;20484;-75
2022/05/11 10:47:07;;;;;;;5.57;3.10;;;;;;;26.83;30.95;100432.13;5074782;28;20447;-76
2022/05/11 10:49:49;;;;;;;7.38;3.38;;;;;;;27.06;30.93;100432.81;5074842;28;20102;-74
2022/05/11 10:52:40;;;;;;;6.23;3.43;;;;;;;26.91;30.54;100428.38;5075923;28;20041;-75
2022/05/11 10:55:23;;;;;;;6.93;3.67;;;;;;;26.74;30.83;100428.66;5076007;28;20123;-76
2022/05/11 10:58:11;;;;;;;7.82;3.30;;;;;;;26.89;30.90;100427.75;5075966;28;20036;-75
2022/05/11 11:00:44;;;;;;;6.55;3.17;;;;;;;26.97;30.30;100433.09;5076440;28;20045;-74
2022/05/11 11:03:47;;;;;;;5.63;3.00;;;;;;;26.92;30.89;100427.34;5075032;28;20452;-74
2022/05/11 11:09:38;;;;;;;5.82;3.00;;;;;;;26.63;31.11;100423.66;5076206;28;20042;-75
2022/05/11 11:12:20;;;;;;;6.35;3.30;;;;;;;26.63;30.36;100420.91;5074608;28;20056;-74
2022/05/11 11:14:50;;;;;;;;;;;;;;;26.87;30.76;100421.63;5075857;28;20056;-75
2022/05/11 11:17:23;;;;;;;8.30;3.88;;;;;;;26.70;30.07;100410.06;5074924;28;20433;-74
2022/05/11 11:19:54;;;;;;;6.80;3.33;;;;;;;26.87;30.01;100416.16;5074534;28;20072;-75
2022/05/11 11:22:22;;;;;;;7.05;3.40;;;;;;;26.70;30.27;100416.38;5076275;28;20059;-75
2022/05/11 11:25:23;;;;;;;7.40;3.67;;;;;;;26.47;30.29;100410.22;5075547;28;20068;-75
2022/05/11 11:28:03;;;;;;;8.40;3.45;;;;;;;26.31;30.95;100405.78;5075739;28;20474;-77
2022/05/11 11:30:31;;;;;;;8.77;3.30;;;;;;;26.35;31.76;100411.72;5075552;28;20543;-74
2022/05/11 11:33:23;;;;;;;8.50;2.80;;;;;;;26.45;31.28;100404.09;5075458;28;20086;-74
2022/05/11 11:35:55;;;;;;;6.70;3.40;;;;;;;26.55;30.70;100399.19;5075573;28;20051;-75
2022/05/11 11:38:28;;;;;;;6.40;2.83;;;;;;;26.73;30.81;100404.19;5074556;28;20053;-75
2022/05/11 11:41:17;;;;;;;;;;;;;;;26.76;30.27;100392.88;5076115;28;20040;-75
2022/05/11 11:43:57;;;;;;;8.40;3.33;;;;;;;26.94;30.17;100386.97;5075739;28;19921;-75
2022/05/11 11:46:31;;;;;;;6.55;2.90;;;;;;;26.91;29.63;100387.34;5075274;28;20448;-75
2022/05/11 11:49:07;;;;;;;9.75;3.15;;;;;;;27.04;29.79;100379.31;5073534;28;20049;-75
2022/05/11 11:51:56;;;;;;;13.85;3.42;;;;;;;27.04;29.89;100385.63;5074010;28;20053;-74
2022/05/11 11:54:31;;;;;;;14.63;3.65;;;;;;;27.01;30.27;100385.13;5073196;28;20103;-75
2022/05/11 11:57:04;;;;;;;10.25;3.00;;;;;;;26.97;30.10;100378.34;5075209;28;20040;-74
2022/05/11 11:59:36;;;;;;;6.75;3.10;;;;;;;26.99;30.53;100374.38;5073911;28;20055;-74
2022/05/11 12:02:18;;;;;;;6.97;3.05;;;;;;;27.20;30.45;100376.28;5073508;28;20044;-74
2022/05/11 12:04:56;;;;;;;7.93;2.95;;;;;;;26.94;30.04;100363.19;5073366;28;20110;-75
2022/05/11 12:16:05;;;;;;;7.95;3.38;;;;;;;27.21;29.29;100355.22;5074088;28;20040;-76
2022/05/11 12:18:36;;;;;;;27.83;4.38;;;;;;;27.45;29.74;100354.78;5073131;28;20456;-76
2022/05/11 12:21:22;;;;;;;17.17;3.38;;;;;;;27.49;28.71;100347.00;5089600;28;20459;-76
2022/05/11 12:23:51;;;;;;;6.60;2.67;;;;;;;27.40;29.16;100346.31;5074474;28;20051;-75
2022/05/11 12:26:25;;;;;;;6.38;3.00;;;;;;;27.65;28.25;100354.94;5074575;28;20049;-76
2022/05/11 12:29:54;;;;;;;5.82;2.80;;;;;;;27.64;28.50;100348.59;5074663;28;20157;-76